sensor_id;sensor_type;location;lat;lon;timestamp;temperature;humidity
7796;DHT22;3942;51.518;6.912;2023-02-01T00:04:43;6.20;99.90
7796;DHT22;3942;51.518;6.912;2023-02-01T00:09:45;6.40;99.90
7796;DHT22;3942;51.518;6.912;2023-02-01T00:19:50;6.30;99.90
7796;DHT22;3942;51.518;6.912;2023-02-01T00:24:52;6.80;99.90
7796;DHT22;3942;51.518;6.912;2023-02-01T00:34:57;6.10;99.90
7796;DHT22;3942;51.518;6.912;2023-02-01T00:39:59;6.00;99.90
7796;DHT22;3942;51.518;6.912;2023-02-01T00:45:03;6.20;99.90
7796;DHT22;3942;51.518;6.912;2023-02-01T00:50:05;6.40;99.90
7796;DHT22;3942;51.518;6.912;2023-02-01T00:55:07;6.40;99.90
7796;DHT22;3942;51.518;6.912;2023-02-01T01:00:12;6.30;99.90
7796;DHT22;3942;51.518;6.912;2023-02-01T01:10:16;6.30;99.90
7796;DHT22;3942;51.518;6.912;2023-02-01T01:15:20;6.30;99.90
7796;DHT22;3942;51.518;6.912;2023-02-01T01:25:24;6.30;99.90
7796;DHT22;3942;51.518;6.912;2023-02-01T01:30:28;6.30;99.90
7796;DHT22;3942;51.518;6.912;2023-02-01T01:35:30;6.20;99.90
7796;DHT22;3942;51.518;6.912;2023-02-01T01:40:32;5.80;99.90
7796;DHT22;3942;51.518;6.912;2023-02-01T01:45:35;5.80;99.90
7796;DHT22;3942;51.518;6.912;2023-02-01T01:55:43;6.70;99.90
7796;DHT22;3942;51.518;6.912;2023-02-01T02:00:48;6.10;99.90
7796;DHT22;3942;51.518;6.912;2023-02-01T02:10:53;5.90;99.90
7796;DHT22;3942;51.518;6.912;2023-02-01T02:16:20;6.00;99.90
7796;DHT22;3942;51.518;6.912;2023-02-01T02:21:43;6.30;99.90
7796;DHT22;3942;51.518;6.912;2023-02-01T02:27:06;6.00;99.90
7796;DHT22;3942;51.518;6.912;2023-02-01T02:37:53;6.00;99.90
7796;DHT22;3942;51.518;6.912;2023-02-01T02:43:01;6.30;99.90
7796;DHT22;3942;51.518;6.912;2023-02-01T02:48:27;6.00;99.90
7796;DHT22;3942;51.518;6.912;2023-02-01T02:53:35;6.10;99.90
7796;DHT22;3942;51.518;6.912;2023-02-01T02:58:56;6.40;99.90
7796;DHT22;3942;51.518;6.912;2023-02-01T03:04:17;5.90;99.90
7796;DHT22;3942;51.518;6.912;2023-02-01T03:09:26;5.80;1.00
7796;DHT22;3942;51.518;6.912;2023-02-01T03:19:34;5.80;1.00
7796;DHT22;3942;51.518;6.912;2023-02-01T03:24:40;5.80;1.00
7796;DHT22;3942;51.518;6.912;2023-02-01T03:34:49;5.70;1.00
7796;DHT22;3942;51.518;6.912;2023-02-01T03:39:57;5.70;1.00
7796;DHT22;3942;51.518;6.912;2023-02-01T03:45:05;5.70;1.00
7796;DHT22;3942;51.518;6.912;2023-02-01T03:50:11;5.90;1.00
7796;DHT22;3942;51.518;6.912;2023-02-01T03:55:20;5.80;1.00
7796;DHT22;3942;51.518;6.912;2023-02-01T04:05:24;5.70;1.00
7796;DHT22;3942;51.518;6.912;2023-02-01T04:10:28;5.90;1.00
7796;DHT22;3942;51.518;6.912;2023-02-01T04:15:30;5.80;1.00
7796;DHT22;3942;51.518;6.912;2023-02-01T04:20:32;6.10;31.60
7796;DHT22;3942;51.518;6.912;2023-02-01T04:25:35;6.20;90.10
7796;DHT22;3942;51.518;6.912;2023-02-01T04:30:37;5.90;3.10
7796;DHT22;3942;51.518;6.912;2023-02-01T04:35:39;6.10;1.00
7796;DHT22;3942;51.518;6.912;2023-02-01T04:40:42;5.70;54.20
7796;DHT22;3942;51.518;6.912;2023-02-01T04:45:47;6.20;99.90
7796;DHT22;3942;51.518;6.912;2023-02-01T04:50:49;6.20;99.90
7796;DHT22;3942;51.518;6.912;2023-02-01T04:55:53;6.00;99.90
7796;DHT22;3942;51.518;6.912;2023-02-01T05:00:54;5.90;99.90
7796;DHT22;3942;51.518;6.912;2023-02-01T05:11:00;5.90;99.90
7796;DHT22;3942;51.518;6.912;2023-02-01T05:21:05;5.70;99.90
7796;DHT22;3942;51.518;6.912;2023-02-01T05:31:11;6.10;99.90
7796;DHT22;3942;51.518;6.912;2023-02-01T05:36:13;5.70;99.90
7796;DHT22;3942;51.518;6.912;2023-02-01T05:41:16;5.80;99.90
7796;DHT22;3942;51.518;6.912;2023-02-01T05:46:18;5.80;99.90
7796;DHT22;3942;51.518;6.912;2023-02-01T05:51:19;5.20;99.90
7796;DHT22;3942;51.518;6.912;2023-02-01T05:56:23;5.70;99.90
7796;DHT22;3942;51.518;6.912;2023-02-01T06:01:24;5.40;99.90
7796;DHT22;3942;51.518;6.912;2023-02-01T06:06:26;5.70;99.90
7796;DHT22;3942;51.518;6.912;2023-02-01T06:11:30;5.90;99.90
7796;DHT22;3942;51.518;6.912;2023-02-01T06:26:38;5.80;99.90
7796;DHT22;3942;51.518;6.912;2023-02-01T06:31:40;5.70;99.90
7796;DHT22;3942;51.518;6.912;2023-02-01T06:36:43;6.10;99.90
7796;DHT22;3942;51.518;6.912;2023-02-01T06:41:47;6.00;99.90
7796;DHT22;3942;51.518;6.912;2023-02-01T06:46:49;6.00;99.90
7796;DHT22;3942;51.518;6.912;2023-02-01T06:51:51;6.80;99.90
7796;DHT22;3942;51.518;6.912;2023-02-01T06:56:54;6.00;99.90
7796;DHT22;3942;51.518;6.912;2023-02-01T07:01:56;5.90;99.90
7796;DHT22;3942;51.518;6.912;2023-02-01T07:06:58;6.00;99.90
7796;DHT22;3942;51.518;6.912;2023-02-01T07:12:01;6.00;99.90
7796;DHT22;3942;51.518;6.912;2023-02-01T07:17:03;5.80;99.90
7796;DHT22;3942;51.518;6.912;2023-02-01T07:22:05;6.30;99.90
7796;DHT22;3942;51.518;6.912;2023-02-01T07:27:08;6.00;99.90
7796;DHT22;3942;51.518;6.912;2023-02-01T07:32:10;6.00;99.90
7796;DHT22;3942;51.518;6.912;2023-02-01T07:37:11;5.80;99.90
7796;DHT22;3942;51.518;6.912;2023-02-01T07:42:15;6.10;99.90
7796;DHT22;3942;51.518;6.912;2023-02-01T07:47:16;6.00;99.90
7796;DHT22;3942;51.518;6.912;2023-02-01T07:52:18;6.00;99.90
7796;DHT22;3942;51.518;6.912;2023-02-01T08:02:24;6.00;99.90
7796;DHT22;3942;51.518;6.912;2023-02-01T08:07:25;5.90;99.90
7796;DHT22;3942;51.518;6.912;2023-02-01T08:12:29;6.00;99.90
7796;DHT22;3942;51.518;6.912;2023-02-01T08:17:30;6.20;99.90
7796;DHT22;3942;51.518;6.912;2023-02-01T08:22:32;6.20;99.90
7796;DHT22;3942;51.518;6.912;2023-02-01T08:27:36;6.20;99.90
7796;DHT22;3942;51.518;6.912;2023-02-01T08:37:40;6.20;99.90
7796;DHT22;3942;51.518;6.912;2023-02-01T08:42:43;6.20;99.90
7796;DHT22;3942;51.518;6.912;2023-02-01T08:47:54;6.40;99.90
7796;DHT22;3942;51.518;6.912;2023-02-01T08:57:59;6.50;99.90
7796;DHT22;3942;51.518;6.912;2023-02-01T09:03:01;6.10;99.90
7796;DHT22;3942;51.518;6.912;2023-02-01T09:13:07;6.40;99.90
7796;DHT22;3942;51.518;6.912;2023-02-01T09:18:09;6.60;99.90
7796;DHT22;3942;51.518;6.912;2023-02-01T09:23:11;6.40;99.90
7796;DHT22;3942;51.518;6.912;2023-02-01T09:28:14;6.40;99.90
7796;DHT22;3942;51.518;6.912;2023-02-01T09:33:17;6.40;99.90
7796;DHT22;3942;51.518;6.912;2023-02-01T09:38:18;6.30;99.90
7796;DHT22;3942;51.518;6.912;2023-02-01T09:43:39;6.40;99.90
7796;DHT22;3942;51.518;6.912;2023-02-01T09:48:45;6.40;99.90
7796;DHT22;3942;51.518;6.912;2023-02-01T09:58:56;6.60;99.90
7796;DHT22;3942;51.518;6.912;2023-02-01T10:04:02;6.50;99.90
7796;DHT22;3942;51.518;6.912;2023-02-01T10:09:17;6.60;99.90
7796;DHT22;3942;51.518;6.912;2023-02-01T10:14:42;6.60;99.90
7796;DHT22;3942;51.518;6.912;2023-02-01T10:19:53;6.90;99.90
7796;DHT22;3942;51.518;6.912;2023-02-01T10:25:03;6.60;99.90
7796;DHT22;3942;51.518;6.912;2023-02-01T10:30:16;6.60;99.90
7796;DHT22;3942;51.518;6.912;2023-02-01T10:35:23;6.60;99.90
7796;DHT22;3942;51.518;6.912;2023-02-01T10:40:26;6.40;99.90
7796;DHT22;3942;51.518;6.912;2023-02-01T10:45:42;6.70;99.90
7796;DHT22;3942;51.518;6.912;2023-02-01T10:50:49;6.90;99.90
7796;DHT22;3942;51.518;6.912;2023-02-01T11:06:10;7.20;99.90
7796;DHT22;3942;51.518;6.912;2023-02-01T11:16:18;7.30;1.00
7796;DHT22;3942;51.518;6.912;2023-02-01T11:21:21;7.10;1.00
7796;DHT22;3942;51.518;6.912;2023-02-01T11:26:24;6.80;1.00
7796;DHT22;3942;51.518;6.912;2023-02-01T11:31:28;7.00;99.90
7796;DHT22;3942;51.518;6.912;2023-02-01T11:36:32;7.10;1.00
7796;DHT22;3942;51.518;6.912;2023-02-01T11:41:41;7.00;99.90
7796;DHT22;3942;51.518;6.912;2023-02-01T11:46:45;7.00;99.90
7796;DHT22;3942;51.518;6.912;2023-02-01T11:51:55;6.90;99.90
7796;DHT22;3942;51.518;6.912;2023-02-01T11:57:11;6.90;99.90
7796;DHT22;3942;51.518;6.912;2023-02-01T12:02:45;6.90;99.90
7796;DHT22;3942;51.518;6.912;2023-02-01T12:08:04;6.90;99.90
7796;DHT22;3942;51.518;6.912;2023-02-01T12:13:18;7.00;99.90
7796;DHT22;3942;51.518;6.912;2023-02-01T12:23:50;7.00;99.90
7796;DHT22;3942;51.518;6.912;2023-02-01T12:34:22;7.10;99.90
7796;DHT22;3942;51.518;6.912;2023-02-01T12:39:31;7.10;99.90
7796;DHT22;3942;51.518;6.912;2023-02-01T12:44:40;7.30;99.90
7796;DHT22;3942;51.518;6.912;2023-02-01T12:54:57;7.30;1.00
7796;DHT22;3942;51.518;6.912;2023-02-01T13:00:05;7.20;1.00
7796;DHT22;3942;51.518;6.912;2023-02-01T13:10:23;7.30;1.00
7796;DHT22;3942;51.518;6.912;2023-02-01T13:15:29;6.90;1.00
7796;DHT22;3942;51.518;6.912;2023-02-01T13:25:41;7.40;99.90
7796;DHT22;3942;51.518;6.912;2023-02-01T13:36:30;7.40;99.90
7796;DHT22;3942;51.518;6.912;2023-02-01T13:46:44;7.50;99.90
7796;DHT22;3942;51.518;6.912;2023-02-01T13:56:52;7.50;1.00
7796;DHT22;3942;51.518;6.912;2023-02-01T14:17:36;7.50;1.00
7796;DHT22;3942;51.518;6.912;2023-02-01T14:42:54;7.70;1.00
7796;DHT22;3942;51.518;6.912;2023-02-01T14:53:34;7.50;1.00
7796;DHT22;3942;51.518;6.912;2023-02-01T14:58:41;7.70;99.90
7796;DHT22;3942;51.518;6.912;2023-02-01T15:08:53;7.70;99.90
7796;DHT22;3942;51.518;6.912;2023-02-01T15:13:56;7.90;1.00
7796;DHT22;3942;51.518;6.912;2023-02-01T15:19:11;7.80;99.90
7796;DHT22;3942;51.518;6.912;2023-02-01T15:24:20;7.80;99.90
7796;DHT22;3942;51.518;6.912;2023-02-01T15:29:23;7.90;99.90
7796;DHT22;3942;51.518;6.912;2023-02-01T15:34:46;7.80;99.90
7796;DHT22;3942;51.518;6.912;2023-02-01T15:40:21;7.80;97.10
7796;DHT22;3942;51.518;6.912;2023-02-01T15:45:26;7.80;99.90
7796;DHT22;3942;51.518;6.912;2023-02-01T15:55:37;7.80;1.00
7796;DHT22;3942;51.518;6.912;2023-02-01T16:05:45;7.80;99.90
7796;DHT22;3942;51.518;6.912;2023-02-01T16:20:54;8.00;1.00
7796;DHT22;3942;51.518;6.912;2023-02-01T16:25:57;7.60;99.90
7796;DHT22;3942;51.518;6.912;2023-02-01T16:36:02;7.30;99.90
7796;DHT22;3942;51.518;6.912;2023-02-01T16:41:05;7.60;99.90
7796;DHT22;3942;51.518;6.912;2023-02-01T16:46:13;7.60;99.90
7796;DHT22;3942;51.518;6.912;2023-02-01T16:56:44;8.00;99.90
7796;DHT22;3942;51.518;6.912;2023-02-01T17:06:49;7.80;66.80
7796;DHT22;3942;51.518;6.912;2023-02-01T17:11:52;7.40;1.00
7796;DHT22;3942;51.518;6.912;2023-02-01T17:21:56;7.30;1.00
7796;DHT22;3942;51.518;6.912;2023-02-01T17:42:15;7.70;99.90
7796;DHT22;3942;51.518;6.912;2023-02-01T17:57:22;7.70;1.00
7796;DHT22;3942;51.518;6.912;2023-02-01T18:12:31;7.70;1.00
7796;DHT22;3942;51.518;6.912;2023-02-01T18:17:33;7.70;1.00
7796;DHT22;3942;51.518;6.912;2023-02-01T18:27:40;7.70;21.70
7796;DHT22;3942;51.518;6.912;2023-02-01T18:32:42;7.80;1.00
7796;DHT22;3942;51.518;6.912;2023-02-01T18:37:44;7.80;1.00
7796;DHT22;3942;51.518;6.912;2023-02-01T18:42:48;7.50;1.00
7796;DHT22;3942;51.518;6.912;2023-02-01T18:47:50;7.50;1.00
7796;DHT22;3942;51.518;6.912;2023-02-01T18:52:53;7.60;1.00
7796;DHT22;3942;51.518;6.912;2023-02-01T18:57:57;7.30;1.00
7796;DHT22;3942;51.518;6.912;2023-02-01T19:08:01;7.60;99.90
7796;DHT22;3942;51.518;6.912;2023-02-01T19:13:04;7.60;99.90
7796;DHT22;3942;51.518;6.912;2023-02-01T19:18:08;7.60;99.90
7796;DHT22;3942;51.518;6.912;2023-02-01T19:28:15;7.70;99.90
7796;DHT22;3942;51.518;6.912;2023-02-01T19:33:19;7.60;99.90
7796;DHT22;3942;51.518;6.912;2023-02-01T19:38:21;7.30;99.90
7796;DHT22;3942;51.518;6.912;2023-02-01T19:43:26;7.50;99.90
7796;DHT22;3942;51.518;6.912;2023-02-01T19:53:30;6.80;99.90
7796;DHT22;3942;51.518;6.912;2023-02-01T19:58:33;6.80;99.90
7796;DHT22;3942;51.518;6.912;2023-02-01T20:03:35;7.10;99.90
7796;DHT22;3942;51.518;6.912;2023-02-01T20:08:37;6.70;99.90
7796;DHT22;3942;51.518;6.912;2023-02-01T20:13:40;6.80;99.90
7796;DHT22;3942;51.518;6.912;2023-02-01T20:18:42;6.70;99.90
7796;DHT22;3942;51.518;6.912;2023-02-01T20:23:44;6.90;99.90
7796;DHT22;3942;51.518;6.912;2023-02-01T20:28:48;6.80;99.90
7796;DHT22;3942;51.518;6.912;2023-02-01T20:33:50;6.80;99.90
7796;DHT22;3942;51.518;6.912;2023-02-01T20:38:53;6.90;99.90
7796;DHT22;3942;51.518;6.912;2023-02-01T20:43:56;7.10;99.90
7796;DHT22;3942;51.518;6.912;2023-02-01T20:48:58;6.90;99.90
7796;DHT22;3942;51.518;6.912;2023-02-01T20:54:00;6.70;99.90
7796;DHT22;3942;51.518;6.912;2023-02-01T20:59:03;6.80;99.90
7796;DHT22;3942;51.518;6.912;2023-02-01T21:09:12;6.70;99.90
7796;DHT22;3942;51.518;6.912;2023-02-01T21:14:16;6.70;99.90
7796;DHT22;3942;51.518;6.912;2023-02-01T21:19:18;6.40;99.90
7796;DHT22;3942;51.518;6.912;2023-02-01T21:24:20;6.20;99.90
7796;DHT22;3942;51.518;6.912;2023-02-01T21:29:23;6.70;99.90
7796;DHT22;3942;51.518;6.912;2023-02-01T21:34:24;6.60;99.90
7796;DHT22;3942;51.518;6.912;2023-02-01T21:39:26;6.20;99.90
7796;DHT22;3942;51.518;6.912;2023-02-01T21:49:32;7.00;99.90
7796;DHT22;3942;51.518;6.912;2023-02-01T21:54:35;6.50;99.90
7796;DHT22;3942;51.518;6.912;2023-02-01T21:59:40;6.20;99.90
7796;DHT22;3942;51.518;6.912;2023-02-01T22:19:50;6.40;99.90
7796;DHT22;3942;51.518;6.912;2023-02-01T22:24:52;6.30;99.90
7796;DHT22;3942;51.518;6.912;2023-02-01T22:29:55;6.40;99.90
7796;DHT22;3942;51.518;6.912;2023-02-01T22:34:57;6.80;99.90
7796;DHT22;3942;51.518;6.912;2023-02-01T22:39:59;6.30;99.90
7796;DHT22;3942;51.518;6.912;2023-02-01T22:45:06;6.50;99.90
7796;DHT22;3942;51.518;6.912;2023-02-01T22:50:08;6.60;99.90
7796;DHT22;3942;51.518;6.912;2023-02-01T22:55:10;6.70;99.90
7796;DHT22;3942;51.518;6.912;2023-02-01T23:00:14;6.80;99.90
7796;DHT22;3942;51.518;6.912;2023-02-01T23:05:16;6.80;99.90
7796;DHT22;3942;51.518;6.912;2023-02-01T23:10:19;6.70;99.90
7796;DHT22;3942;51.518;6.912;2023-02-01T23:20:24;6.80;99.90
7796;DHT22;3942;51.518;6.912;2023-02-01T23:30:30;7.00;99.90
7796;DHT22;3942;51.518;6.912;2023-02-01T23:35:31;6.80;99.90
7796;DHT22;3942;51.518;6.912;2023-02-01T23:40:35;6.80;99.90
7796;DHT22;3942;51.518;6.912;2023-02-01T23:45:38;7.10;99.90
